PDL weather

João Paulo II Airport
Ponta Delgada, Autonomous Region of Azores, Portugal

Public forecast

Using degrees Celsius for public forecast. Weather courtesy of forecast.io.

Current aviation weather report (METAR) for João Paulo II Airport

Retrieved 2019/12/07 03:30 UTC (7 minutes ago):

LPPD 070330Z 25010KT 9999 FEW020 BKN030 17/11 Q1030

Aviation forecast (TAF) for João Paulo II Airport

Retrieved 2019-12-07 00:18 UTC (3 hours ago):

TAF LPPD 062300Z 0700/0724 VRB05KT 9999 FEW020 BKN030 TEMPO 0700/0724 SCT020 BECMG 0703/0706 27010KT BECMG 0718/0721 30008KT